sensor_id;sensor_type;location;lat;lon;timestamp;temperature;humidity
32536;DHT22;18974;50.838;4.636;2023-12-29T00:01:46;11.20;99.90
32536;DHT22;18974;50.838;4.636;2023-12-29T00:04:12;11.30;99.90
32536;DHT22;18974;50.838;4.636;2023-12-29T00:06:38;11.20;99.90
32536;DHT22;18974;50.838;4.636;2023-12-29T00:09:04;11.20;99.90
32536;DHT22;18974;50.838;4.636;2023-12-29T00:11:30;11.10;99.90
32536;DHT22;18974;50.838;4.636;2023-12-29T00:13:56;11.10;99.90
32536;DHT22;18974;50.838;4.636;2023-12-29T00:16:21;11.00;99.90
32536;DHT22;18974;50.838;4.636;2023-12-29T00:18:47;11.10;99.90
32536;DHT22;18974;50.838;4.636;2023-12-29T00:21:13;11.10;99.90
32536;DHT22;18974;50.838;4.636;2023-12-29T00:23:39;11.20;99.90
32536;DHT22;18974;50.838;4.636;2023-12-29T00:26:05;11.20;99.90
32536;DHT22;18974;50.838;4.636;2023-12-29T00:28:30;11.20;99.90
32536;DHT22;18974;50.838;4.636;2023-12-29T00:30:56;11.20;99.90
32536;DHT22;18974;50.838;4.636;2023-12-29T00:33:22;11.10;99.90
32536;DHT22;18974;50.838;4.636;2023-12-29T00:35:47;11.20;99.90
32536;DHT22;18974;50.838;4.636;2023-12-29T00:38:13;11.20;99.90
32536;DHT22;18974;50.838;4.636;2023-12-29T00:40:39;11.20;99.90
32536;DHT22;18974;50.838;4.636;2023-12-29T00:43:05;11.10;99.90
32536;DHT22;18974;50.838;4.636;2023-12-29T00:45:31;11.10;99.90
32536;DHT22;18974;50.838;4.636;2023-12-29T00:47:59;11.10;99.90
32536;DHT22;18974;50.838;4.636;2023-12-29T00:50:25;11.10;99.90
32536;DHT22;18974;50.838;4.636;2023-12-29T00:52:52;11.00;99.90
32536;DHT22;18974;50.838;4.636;2023-12-29T00:55:18;11.10;99.90
32536;DHT22;18974;50.838;4.636;2023-12-29T00:57:44;11.20;99.90
32536;DHT22;18974;50.838;4.636;2023-12-29T01:00:12;11.10;99.90
32536;DHT22;18974;50.838;4.636;2023-12-29T01:02:38;11.10;99.90
32536;DHT22;18974;50.838;4.636;2023-12-29T01:05:04;11.10;99.90
32536;DHT22;18974;50.838;4.636;2023-12-29T01:07:30;11.20;99.90
32536;DHT22;18974;50.838;4.636;2023-12-29T01:09:56;11.20;99.90
32536;DHT22;18974;50.838;4.636;2023-12-29T01:12:22;11.20;99.90
32536;DHT22;18974;50.838;4.636;2023-12-29T01:14:48;11.10;99.90
32536;DHT22;18974;50.838;4.636;2023-12-29T01:17:13;11.20;99.90
32536;DHT22;18974;50.838;4.636;2023-12-29T01:19:39;11.10;99.90
32536;DHT22;18974;50.838;4.636;2023-12-29T01:22:05;11.10;99.90
32536;DHT22;18974;50.838;4.636;2023-12-29T01:24:30;11.10;99.90
32536;DHT22;18974;50.838;4.636;2023-12-29T01:26:56;11.10;99.90
32536;DHT22;18974;50.838;4.636;2023-12-29T01:29:22;11.10;99.90
32536;DHT22;18974;50.838;4.636;2023-12-29T01:31:48;11.10;99.90
32536;DHT22;18974;50.838;4.636;2023-12-29T01:34:13;11.10;99.90
32536;DHT22;18974;50.838;4.636;2023-12-29T01:36:39;11.10;99.90
32536;DHT22;18974;50.838;4.636;2023-12-29T01:39:05;11.10;99.90
32536;DHT22;18974;50.838;4.636;2023-12-29T01:41:30;11.10;99.90
32536;DHT22;18974;50.838;4.636;2023-12-29T01:46:22;11.10;99.90
32536;DHT22;18974;50.838;4.636;2023-12-29T01:48:48;11.10;99.90
32536;DHT22;18974;50.838;4.636;2023-12-29T01:51:15;11.20;99.90
32536;DHT22;18974;50.838;4.636;2023-12-29T01:53:41;11.20;99.90
32536;DHT22;18974;50.838;4.636;2023-12-29T01:56:07;11.20;99.90
32536;DHT22;18974;50.838;4.636;2023-12-29T01:58:33;11.20;99.90
32536;DHT22;18974;50.838;4.636;2023-12-29T02:01:01;11.10;99.90
32536;DHT22;18974;50.838;4.636;2023-12-29T02:03:27;11.10;99.90
32536;DHT22;18974;50.838;4.636;2023-12-29T02:05:55;11.20;99.90
32536;DHT22;18974;50.838;4.636;2023-12-29T02:08:23;11.10;99.90
32536;DHT22;18974;50.838;4.636;2023-12-29T02:10:49;11.10;99.90
32536;DHT22;18974;50.838;4.636;2023-12-29T02:13:14;11.10;99.90
32536;DHT22;18974;50.838;4.636;2023-12-29T02:15:40;11.10;99.90
32536;DHT22;18974;50.838;4.636;2023-12-29T02:18:08;11.20;99.90
32536;DHT22;18974;50.838;4.636;2023-12-29T02:20:35;11.20;99.90
32536;DHT22;18974;50.838;4.636;2023-12-29T02:23:02;11.20;99.90
32536;DHT22;18974;50.838;4.636;2023-12-29T02:25:29;11.30;99.90
32536;DHT22;18974;50.838;4.636;2023-12-29T02:28:06;11.30;99.90
32536;DHT22;18974;50.838;4.636;2023-12-29T02:30:49;11.20;99.90
32536;DHT22;18974;50.838;4.636;2023-12-29T02:33:21;11.30;99.90
32536;DHT22;18974;50.838;4.636;2023-12-29T02:35:49;11.20;99.90
32536;DHT22;18974;50.838;4.636;2023-12-29T02:38:16;11.20;99.90
32536;DHT22;18974;50.838;4.636;2023-12-29T02:40:41;11.10;99.90
32536;DHT22;18974;50.838;4.636;2023-12-29T02:43:09;11.20;99.90
32536;DHT22;18974;50.838;4.636;2023-12-29T02:45:35;11.30;99.90
32536;DHT22;18974;50.838;4.636;2023-12-29T02:48:01;11.30;99.90
32536;DHT22;18974;50.838;4.636;2023-12-29T02:50:26;11.30;99.90
32536;DHT22;18974;50.838;4.636;2023-12-29T02:52:52;11.20;99.90
32536;DHT22;18974;50.838;4.636;2023-12-29T02:55:18;11.20;99.90
32536;DHT22;18974;50.838;4.636;2023-12-29T02:57:44;11.20;99.90
32536;DHT22;18974;50.838;4.636;2023-12-29T03:00:10;11.20;99.90
32536;DHT22;18974;50.838;4.636;2023-12-29T03:02:35;11.20;99.90
32536;DHT22;18974;50.838;4.636;2023-12-29T03:05:01;11.30;99.90
32536;DHT22;18974;50.838;4.636;2023-12-29T03:07:27;11.20;99.90
32536;DHT22;18974;50.838;4.636;2023-12-29T03:09:53;11.20;99.90
32536;DHT22;18974;50.838;4.636;2023-12-29T03:12:19;11.20;99.90
32536;DHT22;18974;50.838;4.636;2023-12-29T03:14:45;11.20;99.90
32536;DHT22;18974;50.838;4.636;2023-12-29T03:17:12;11.30;99.90
32536;DHT22;18974;50.838;4.636;2023-12-29T03:19:38;11.20;99.90
32536;DHT22;18974;50.838;4.636;2023-12-29T03:22:04;11.20;99.90
32536;DHT22;18974;50.838;4.636;2023-12-29T03:24:29;11.20;99.90
32536;DHT22;18974;50.838;4.636;2023-12-29T03:26:55;11.10;99.90
32536;DHT22;18974;50.838;4.636;2023-12-29T03:29:21;11.10;99.90
32536;DHT22;18974;50.838;4.636;2023-12-29T03:31:47;11.10;99.90
32536;DHT22;18974;50.838;4.636;2023-12-29T03:34:12;11.10;99.90
32536;DHT22;18974;50.838;4.636;2023-12-29T03:36:38;11.10;99.90
32536;DHT22;18974;50.838;4.636;2023-12-29T03:39:04;11.10;99.90
32536;DHT22;18974;50.838;4.636;2023-12-29T03:41:30;11.10;99.90
32536;DHT22;18974;50.838;4.636;2023-12-29T03:43:55;11.10;99.90
32536;DHT22;18974;50.838;4.636;2023-12-29T03:46:25;11.10;99.90
32536;DHT22;18974;50.838;4.636;2023-12-29T03:48:51;11.00;99.90
32536;DHT22;18974;50.838;4.636;2023-12-29T03:51:18;11.00;99.90
32536;DHT22;18974;50.838;4.636;2023-12-29T03:53:44;11.00;99.90
32536;DHT22;18974;50.838;4.636;2023-12-29T03:56:16;11.00;99.90
32536;DHT22;18974;50.838;4.636;2023-12-29T03:58:42;11.00;99.90
32536;DHT22;18974;50.838;4.636;2023-12-29T04:01:12;11.00;99.90
32536;DHT22;18974;50.838;4.636;2023-12-29T04:03:39;11.00;99.90
32536;DHT22;18974;50.838;4.636;2023-12-29T04:06:05;11.00;99.90
32536;DHT22;18974;50.838;4.636;2023-12-29T04:08:32;10.90;99.90
32536;DHT22;18974;50.838;4.636;2023-12-29T04:10:58;10.90;99.90
32536;DHT22;18974;50.838;4.636;2023-12-29T04:13:24;10.90;99.90
32536;DHT22;18974;50.838;4.636;2023-12-29T04:15:49;11.00;99.90
32536;DHT22;18974;50.838;4.636;2023-12-29T04:18:15;11.00;99.90
32536;DHT22;18974;50.838;4.636;2023-12-29T04:20:41;11.10;99.90
32536;DHT22;18974;50.838;4.636;2023-12-29T04:23:07;11.10;99.90
32536;DHT22;18974;50.838;4.636;2023-12-29T04:25:33;10.90;99.90
32536;DHT22;18974;50.838;4.636;2023-12-29T04:27:59;10.80;99.90
32536;DHT22;18974;50.838;4.636;2023-12-29T04:30:24;10.80;99.90
32536;DHT22;18974;50.838;4.636;2023-12-29T04:32:50;10.80;99.90
32536;DHT22;18974;50.838;4.636;2023-12-29T04:35:16;10.80;99.90
32536;DHT22;18974;50.838;4.636;2023-12-29T04:37:45;10.80;99.90
32536;DHT22;18974;50.838;4.636;2023-12-29T04:40:14;10.90;99.90
32536;DHT22;18974;50.838;4.636;2023-12-29T04:42:40;11.00;99.90
32536;DHT22;18974;50.838;4.636;2023-12-29T04:45:06;11.00;99.90
32536;DHT22;18974;50.838;4.636;2023-12-29T04:47:32;11.00;99.90
32536;DHT22;18974;50.838;4.636;2023-12-29T04:49:58;11.00;99.90
32536;DHT22;18974;50.838;4.636;2023-12-29T04:52:24;11.00;99.90
32536;DHT22;18974;50.838;4.636;2023-12-29T04:54:50;10.90;99.90
32536;DHT22;18974;50.838;4.636;2023-12-29T04:57:15;10.90;99.90
32536;DHT22;18974;50.838;4.636;2023-12-29T04:59:41;10.90;99.90
32536;DHT22;18974;50.838;4.636;2023-12-29T05:02:07;10.90;99.90
32536;DHT22;18974;50.838;4.636;2023-12-29T05:04:32;10.90;99.90
32536;DHT22;18974;50.838;4.636;2023-12-29T05:06:58;10.90;99.90
32536;DHT22;18974;50.838;4.636;2023-12-29T05:09:24;10.90;99.90
32536;DHT22;18974;50.838;4.636;2023-12-29T05:11:49;10.90;99.90
32536;DHT22;18974;50.838;4.636;2023-12-29T05:14:15;10.90;99.90
32536;DHT22;18974;50.838;4.636;2023-12-29T05:16:42;11.00;99.90
32536;DHT22;18974;50.838;4.636;2023-12-29T05:19:08;11.00;99.90
32536;DHT22;18974;50.838;4.636;2023-12-29T05:21:33;11.10;99.90
32536;DHT22;18974;50.838;4.636;2023-12-29T05:23:59;11.10;99.90
32536;DHT22;18974;50.838;4.636;2023-12-29T05:26:25;11.00;99.90
32536;DHT22;18974;50.838;4.636;2023-12-29T05:28:51;10.90;99.90
32536;DHT22;18974;50.838;4.636;2023-12-29T05:31:17;10.90;99.90
32536;DHT22;18974;50.838;4.636;2023-12-29T05:33:44;11.00;99.90
32536;DHT22;18974;50.838;4.636;2023-12-29T05:36:10;10.90;99.90
32536;DHT22;18974;50.838;4.636;2023-12-29T05:38:37;11.00;99.90
32536;DHT22;18974;50.838;4.636;2023-12-29T05:41:03;10.90;99.90
32536;DHT22;18974;50.838;4.636;2023-12-29T05:43:31;11.00;99.90
32536;DHT22;18974;50.838;4.636;2023-12-29T05:45:57;11.00;99.90
32536;DHT22;18974;50.838;4.636;2023-12-29T05:48:23;11.00;99.90
32536;DHT22;18974;50.838;4.636;2023-12-29T05:50:50;11.00;99.90
32536;DHT22;18974;50.838;4.636;2023-12-29T05:53:16;11.00;99.90
32536;DHT22;18974;50.838;4.636;2023-12-29T05:55:43;11.00;99.90
32536;DHT22;18974;50.838;4.636;2023-12-29T05:58:08;11.00;99.90
32536;DHT22;18974;50.838;4.636;2023-12-29T06:00:35;11.00;99.90
32536;DHT22;18974;50.838;4.636;2023-12-29T06:03:00;11.10;99.90
32536;DHT22;18974;50.838;4.636;2023-12-29T06:05:26;11.10;99.90
32536;DHT22;18974;50.838;4.636;2023-12-29T06:07:52;11.20;99.90
32536;DHT22;18974;50.838;4.636;2023-12-29T06:10:17;11.10;99.90
32536;DHT22;18974;50.838;4.636;2023-12-29T06:12:43;11.10;99.90
32536;DHT22;18974;50.838;4.636;2023-12-29T06:15:09;11.10;99.90
32536;DHT22;18974;50.838;4.636;2023-12-29T06:17:35;11.10;99.90
32536;DHT22;18974;50.838;4.636;2023-12-29T06:20:01;11.00;99.90
32536;DHT22;18974;50.838;4.636;2023-12-29T06:22:30;10.90;99.90
32536;DHT22;18974;50.838;4.636;2023-12-29T06:24:56;10.70;99.90
32536;DHT22;18974;50.838;4.636;2023-12-29T06:27:22;10.60;99.90
32536;DHT22;18974;50.838;4.636;2023-12-29T06:29:48;10.50;99.90
32536;DHT22;18974;50.838;4.636;2023-12-29T06:32:14;10.40;99.90
32536;DHT22;18974;50.838;4.636;2023-12-29T06:34:40;10.40;99.90
32536;DHT22;18974;50.838;4.636;2023-12-29T06:37:06;10.30;99.90
32536;DHT22;18974;50.838;4.636;2023-12-29T06:39:31;10.20;99.90
32536;DHT22;18974;50.838;4.636;2023-12-29T06:41:57;10.30;99.90
32536;DHT22;18974;50.838;4.636;2023-12-29T06:44:23;10.30;99.90
32536;DHT22;18974;50.838;4.636;2023-12-29T06:46:48;10.30;99.90
32536;DHT22;18974;50.838;4.636;2023-12-29T06:49:14;10.30;99.90
32536;DHT22;18974;50.838;4.636;2023-12-29T06:51:40;10.20;99.90
32536;DHT22;18974;50.838;4.636;2023-12-29T06:54:06;10.20;99.90
32536;DHT22;18974;50.838;4.636;2023-12-29T06:56:32;10.00;99.90
32536;DHT22;18974;50.838;4.636;2023-12-29T06:58:58;10.00;99.90
32536;DHT22;18974;50.838;4.636;2023-12-29T07:01:24;10.10;99.90
32536;DHT22;18974;50.838;4.636;2023-12-29T07:03:50;10.00;99.90
32536;DHT22;18974;50.838;4.636;2023-12-29T07:06:15;10.00;99.90
32536;DHT22;18974;50.838;4.636;2023-12-29T07:08:41;10.10;99.90
32536;DHT22;18974;50.838;4.636;2023-12-29T07:11:10;10.10;99.90
32536;DHT22;18974;50.838;4.636;2023-12-29T07:13:39;9.90;99.90
32536;DHT22;18974;50.838;4.636;2023-12-29T07:18:39;9.90;99.90
32536;DHT22;18974;50.838;4.636;2023-12-29T07:21:05;9.90;99.90
32536;DHT22;18974;50.838;4.636;2023-12-29T07:23:30;9.90;99.90
32536;DHT22;18974;50.838;4.636;2023-12-29T07:25:56;10.00;99.90
32536;DHT22;18974;50.838;4.636;2023-12-29T07:28:22;9.90;99.90
32536;DHT22;18974;50.838;4.636;2023-12-29T07:30:48;10.00;99.90
32536;DHT22;18974;50.838;4.636;2023-12-29T07:33:13;10.00;99.90
32536;DHT22;18974;50.838;4.636;2023-12-29T07:35:39;10.10;99.90
32536;DHT22;18974;50.838;4.636;2023-12-29T07:38:05;10.00;99.90
32536;DHT22;18974;50.838;4.636;2023-12-29T07:40:31;10.10;99.90
32536;DHT22;18974;50.838;4.636;2023-12-29T07:42:56;10.10;99.90
32536;DHT22;18974;50.838;4.636;2023-12-29T07:45:22;10.20;99.90
32536;DHT22;18974;50.838;4.636;2023-12-29T07:47:48;10.10;99.90
32536;DHT22;18974;50.838;4.636;2023-12-29T07:50:14;10.20;99.90
32536;DHT22;18974;50.838;4.636;2023-12-29T07:52:39;10.20;99.90
32536;DHT22;18974;50.838;4.636;2023-12-29T07:55:07;10.20;99.90
32536;DHT22;18974;50.838;4.636;2023-12-29T07:57:33;10.20;99.90
32536;DHT22;18974;50.838;4.636;2023-12-29T07:59:59;10.20;99.90
32536;DHT22;18974;50.838;4.636;2023-12-29T08:02:24;10.20;99.90
32536;DHT22;18974;50.838;4.636;2023-12-29T08:04:50;10.20;99.90
32536;DHT22;18974;50.838;4.636;2023-12-29T08:07:16;10.20;99.90
32536;DHT22;18974;50.838;4.636;2023-12-29T08:09:42;10.30;99.90
32536;DHT22;18974;50.838;4.636;2023-12-29T08:12:08;10.30;99.90
32536;DHT22;18974;50.838;4.636;2023-12-29T08:14:33;10.20;99.90
32536;DHT22;18974;50.838;4.636;2023-12-29T08:16:59;10.30;99.90
32536;DHT22;18974;50.838;4.636;2023-12-29T08:19:25;10.30;99.90
32536;DHT22;18974;50.838;4.636;2023-12-29T08:21:51;10.30;99.90
32536;DHT22;18974;50.838;4.636;2023-12-29T08:24:17;10.30;99.90
32536;DHT22;18974;50.838;4.636;2023-12-29T08:26:45;10.30;99.90
32536;DHT22;18974;50.838;4.636;2023-12-29T08:29:12;10.30;99.90
32536;DHT22;18974;50.838;4.636;2023-12-29T08:31:37;10.20;99.90
32536;DHT22;18974;50.838;4.636;2023-12-29T08:34:03;10.30;99.90
32536;DHT22;18974;50.838;4.636;2023-12-29T08:36:29;10.30;99.90
32536;DHT22;18974;50.838;4.636;2023-12-29T08:38:55;10.40;99.90
32536;DHT22;18974;50.838;4.636;2023-12-29T08:41:22;10.40;99.90
32536;DHT22;18974;50.838;4.636;2023-12-29T08:43:48;10.40;99.90
32536;DHT22;18974;50.838;4.636;2023-12-29T08:46:13;10.40;99.90
32536;DHT22;18974;50.838;4.636;2023-12-29T08:48:39;10.40;99.90
32536;DHT22;18974;50.838;4.636;2023-12-29T08:51:07;10.50;99.90
32536;DHT22;18974;50.838;4.636;2023-12-29T08:53:33;10.50;99.90
32536;DHT22;18974;50.838;4.636;2023-12-29T08:56:01;10.50;99.90
32536;DHT22;18974;50.838;4.636;2023-12-29T08:58:27;10.60;99.90
32536;DHT22;18974;50.838;4.636;2023-12-29T09:00:53;10.60;99.90
32536;DHT22;18974;50.838;4.636;2023-12-29T09:03:19;10.60;99.90
32536;DHT22;18974;50.838;4.636;2023-12-29T09:05:45;10.60;99.90
32536;DHT22;18974;50.838;4.636;2023-12-29T09:08:11;10.60;99.90
32536;DHT22;18974;50.838;4.636;2023-12-29T09:10:37;10.60;99.90
32536;DHT22;18974;50.838;4.636;2023-12-29T09:13:03;10.70;99.90
32536;DHT22;18974;50.838;4.636;2023-12-29T09:15:28;10.70;99.90
32536;DHT22;18974;50.838;4.636;2023-12-29T09:17:54;10.60;99.90
32536;DHT22;18974;50.838;4.636;2023-12-29T09:20:20;10.60;99.90
32536;DHT22;18974;50.838;4.636;2023-12-29T09:22:46;10.60;99.90
32536;DHT22;18974;50.838;4.636;2023-12-29T09:25:12;10.60;99.90
32536;DHT22;18974;50.838;4.636;2023-12-29T09:27:38;10.60;99.90
32536;DHT22;18974;50.838;4.636;2023-12-29T09:30:04;10.60;99.90
32536;DHT22;18974;50.838;4.636;2023-12-29T09:32:30;10.60;99.90
32536;DHT22;18974;50.838;4.636;2023-12-29T09:34:56;10.60;99.90
32536;DHT22;18974;50.838;4.636;2023-12-29T09:37:22;10.70;99.90
32536;DHT22;18974;50.838;4.636;2023-12-29T09:39:48;10.90;99.90
32536;DHT22;18974;50.838;4.636;2023-12-29T09:42:23;10.90;99.90
32536;DHT22;18974;50.838;4.636;2023-12-29T09:44:50;11.00;99.90
32536;DHT22;18974;50.838;4.636;2023-12-29T09:47:22;11.00;99.90
32536;DHT22;18974;50.838;4.636;2023-12-29T09:49:49;11.20;99.90
32536;DHT22;18974;50.838;4.636;2023-12-29T09:52:18;11.10;99.90
32536;DHT22;18974;50.838;4.636;2023-12-29T09:54:45;11.20;99.90
32536;DHT22;18974;50.838;4.636;2023-12-29T09:57:12;11.20;99.90
32536;DHT22;18974;50.838;4.636;2023-12-29T09:59:38;11.30;99.90
32536;DHT22;18974;50.838;4.636;2023-12-29T10:02:13;11.30;99.90
32536;DHT22;18974;50.838;4.636;2023-12-29T10:04:40;11.40;99.90
32536;DHT22;18974;50.838;4.636;2023-12-29T10:07:06;11.40;99.90
32536;DHT22;18974;50.838;4.636;2023-12-29T10:09:34;11.40;99.90
32536;DHT22;18974;50.838;4.636;2023-12-29T10:12:02;11.60;99.90
32536;DHT22;18974;50.838;4.636;2023-12-29T10:17:36;11.60;99.90
32536;DHT22;18974;50.838;4.636;2023-12-29T10:25:25;11.50;99.90
32536;DHT22;18974;50.838;4.636;2023-12-29T10:27:51;11.50;99.90
32536;DHT22;18974;50.838;4.636;2023-12-29T10:30:17;11.70;99.90
32536;DHT22;18974;50.838;4.636;2023-12-29T10:32:49;11.70;99.90
32536;DHT22;18974;50.838;4.636;2023-12-29T10:35:15;11.90;99.90
32536;DHT22;18974;50.838;4.636;2023-12-29T10:37:40;11.80;99.90
32536;DHT22;18974;50.838;4.636;2023-12-29T10:40:07;11.80;99.90
32536;DHT22;18974;50.838;4.636;2023-12-29T10:42:33;11.90;99.90
32536;DHT22;18974;50.838;4.636;2023-12-29T10:45:07;12.00;99.90
32536;DHT22;18974;50.838;4.636;2023-12-29T10:47:33;12.00;99.90
32536;DHT22;18974;50.838;4.636;2023-12-29T10:50:02;12.00;99.90
32536;DHT22;18974;50.838;4.636;2023-12-29T10:52:29;12.10;99.90
32536;DHT22;18974;50.838;4.636;2023-12-29T10:55:06;12.20;99.90
32536;DHT22;18974;50.838;4.636;2023-12-29T10:57:32;12.20;99.90
32536;DHT22;18974;50.838;4.636;2023-12-29T11:00:01;12.00;99.90
32536;DHT22;18974;50.838;4.636;2023-12-29T11:02:28;12.00;99.90
32536;DHT22;18974;50.838;4.636;2023-12-29T11:05:05;12.00;99.90
32536;DHT22;18974;50.838;4.636;2023-12-29T11:07:36;11.90;99.90
32536;DHT22;18974;50.838;4.636;2023-12-29T11:10:06;11.90;99.90
32536;DHT22;18974;50.838;4.636;2023-12-29T11:12:35;12.00;99.90
32536;DHT22;18974;50.838;4.636;2023-12-29T11:15:05;12.00;99.90
32536;DHT22;18974;50.838;4.636;2023-12-29T11:17:33;12.00;99.90
32536;DHT22;18974;50.838;4.636;2023-12-29T11:20:01;11.90;99.90
32536;DHT22;18974;50.838;4.636;2023-12-29T11:22:31;11.90;99.90
32536;DHT22;18974;50.838;4.636;2023-12-29T11:24:58;12.00;99.90
32536;DHT22;18974;50.838;4.636;2023-12-29T11:27:28;12.10;99.90
32536;DHT22;18974;50.838;4.636;2023-12-29T11:29:58;12.20;99.90
32536;DHT22;18974;50.838;4.636;2023-12-29T11:32:45;11.90;99.90
32536;DHT22;18974;50.838;4.636;2023-12-29T11:40:26;12.00;99.90
32536;DHT22;18974;50.838;4.636;2023-12-29T11:42:53;12.20;99.90
32536;DHT22;18974;50.838;4.636;2023-12-29T11:45:31;12.20;99.90
32536;DHT22;18974;50.838;4.636;2023-12-29T11:47:59;12.20;99.90
32536;DHT22;18974;50.838;4.636;2023-12-29T11:50:39;12.10;99.90
32536;DHT22;18974;50.838;4.636;2023-12-29T11:53:08;12.20;99.90
32536;DHT22;18974;50.838;4.636;2023-12-29T11:55:36;12.20;99.90
32536;DHT22;18974;50.838;4.636;2023-12-29T12:00:47;12.10;99.90
32536;DHT22;18974;50.838;4.636;2023-12-29T12:03:27;12.00;99.90
32536;DHT22;18974;50.838;4.636;2023-12-29T12:05:54;11.80;99.90
32536;DHT22;18974;50.838;4.636;2023-12-29T12:08:32;11.70;99.90
32536;DHT22;18974;50.838;4.636;2023-12-29T12:13:55;11.40;99.90
32536;DHT22;18974;50.838;4.636;2023-12-29T12:19:12;11.40;99.90
32536;DHT22;18974;50.838;4.636;2023-12-29T12:21:38;11.30;99.90
32536;DHT22;18974;50.838;4.636;2023-12-29T12:24:04;11.30;99.90
32536;DHT22;18974;50.838;4.636;2023-12-29T12:26:31;11.20;99.90
32536;DHT22;18974;50.838;4.636;2023-12-29T12:28:57;11.20;99.90
32536;DHT22;18974;50.838;4.636;2023-12-29T12:31:24;11.30;99.90
32536;DHT22;18974;50.838;4.636;2023-12-29T12:33:56;11.40;99.90
32536;DHT22;18974;50.838;4.636;2023-12-29T12:36:23;11.40;99.90
32536;DHT22;18974;50.838;4.636;2023-12-29T12:38:56;11.40;99.90
32536;DHT22;18974;50.838;4.636;2023-12-29T12:41:26;11.40;99.90
32536;DHT22;18974;50.838;4.636;2023-12-29T12:44:04;11.30;99.90
32536;DHT22;18974;50.838;4.636;2023-12-29T12:46:51;11.30;99.90
32536;DHT22;18974;50.838;4.636;2023-12-29T12:49:21;11.20;99.90
32536;DHT22;18974;50.838;4.636;2023-12-29T12:51:47;11.20;99.90
32536;DHT22;18974;50.838;4.636;2023-12-29T12:54:15;11.20;99.90
32536;DHT22;18974;50.838;4.636;2023-12-29T12:56:43;11.20;99.90
32536;DHT22;18974;50.838;4.636;2023-12-29T12:59:09;11.10;99.90
32536;DHT22;18974;50.838;4.636;2023-12-29T13:01:36;11.10;99.90
32536;DHT22;18974;50.838;4.636;2023-12-29T13:04:03;11.10;99.90
32536;DHT22;18974;50.838;4.636;2023-12-29T13:06:33;11.10;99.90
32536;DHT22;18974;50.838;4.636;2023-12-29T13:09:01;11.10;99.90
32536;DHT22;18974;50.838;4.636;2023-12-29T13:11:32;11.20;99.90
32536;DHT22;18974;50.838;4.636;2023-12-29T13:13:58;11.20;99.90
32536;DHT22;18974;50.838;4.636;2023-12-29T13:18:56;11.00;99.90
32536;DHT22;18974;50.838;4.636;2023-12-29T13:21:21;11.10;99.90
32536;DHT22;18974;50.838;4.636;2023-12-29T13:23:47;11.00;99.90
32536;DHT22;18974;50.838;4.636;2023-12-29T13:26:13;11.20;99.90
32536;DHT22;18974;50.838;4.636;2023-12-29T13:28:40;11.20;99.90
32536;DHT22;18974;50.838;4.636;2023-12-29T13:31:09;11.20;99.90
32536;DHT22;18974;50.838;4.636;2023-12-29T13:33:57;11.30;99.90
32536;DHT22;18974;50.838;4.636;2023-12-29T13:36:50;11.30;99.90
32536;DHT22;18974;50.838;4.636;2023-12-29T13:39:27;11.40;99.90
32536;DHT22;18974;50.838;4.636;2023-12-29T13:41:55;11.40;99.90
32536;DHT22;18974;50.838;4.636;2023-12-29T13:44:21;11.40;99.90
32536;DHT22;18974;50.838;4.636;2023-12-29T13:46:50;11.50;99.90
32536;DHT22;18974;50.838;4.636;2023-12-29T13:49:16;11.50;99.90
32536;DHT22;18974;50.838;4.636;2023-12-29T13:51:42;11.60;99.90
32536;DHT22;18974;50.838;4.636;2023-12-29T13:54:08;11.60;99.90
32536;DHT22;18974;50.838;4.636;2023-12-29T13:56:35;11.60;99.90
32536;DHT22;18974;50.838;4.636;2023-12-29T13:59:00;11.50;99.90
32536;DHT22;18974;50.838;4.636;2023-12-29T14:01:37;11.30;99.90
32536;DHT22;18974;50.838;4.636;2023-12-29T14:04:07;11.30;99.90
32536;DHT22;18974;50.838;4.636;2023-12-29T14:06:43;11.30;99.90
32536;DHT22;18974;50.838;4.636;2023-12-29T14:09:16;11.30;99.90
32536;DHT22;18974;50.838;4.636;2023-12-29T14:11:47;11.40;99.90
32536;DHT22;18974;50.838;4.636;2023-12-29T14:14:13;11.40;99.90
32536;DHT22;18974;50.838;4.636;2023-12-29T14:16:40;11.40;99.90
32536;DHT22;18974;50.838;4.636;2023-12-29T14:19:05;11.40;99.90
32536;DHT22;18974;50.838;4.636;2023-12-29T14:21:32;11.30;99.90
32536;DHT22;18974;50.838;4.636;2023-12-29T14:24:11;11.30;99.90
32536;DHT22;18974;50.838;4.636;2023-12-29T14:26:41;11.20;99.90
32536;DHT22;18974;50.838;4.636;2023-12-29T14:29:11;11.20;99.90
32536;DHT22;18974;50.838;4.636;2023-12-29T14:31:43;11.20;99.90
32536;DHT22;18974;50.838;4.636;2023-12-29T14:34:11;11.10;99.90
32536;DHT22;18974;50.838;4.636;2023-12-29T14:36:39;11.10;99.90
32536;DHT22;18974;50.838;4.636;2023-12-29T14:39:06;11.10;99.90
32536;DHT22;18974;50.838;4.636;2023-12-29T14:41:32;11.20;99.90
32536;DHT22;18974;50.838;4.636;2023-12-29T14:43:58;11.20;99.90
32536;DHT22;18974;50.838;4.636;2023-12-29T14:46:24;11.10;99.90
32536;DHT22;18974;50.838;4.636;2023-12-29T14:48:51;11.00;99.90
32536;DHT22;18974;50.838;4.636;2023-12-29T14:51:17;11.10;99.90
32536;DHT22;18974;50.838;4.636;2023-12-29T14:53:45;11.10;99.90
32536;DHT22;18974;50.838;4.636;2023-12-29T14:56:11;11.10;99.90
32536;DHT22;18974;50.838;4.636;2023-12-29T14:58:37;11.00;99.90
32536;DHT22;18974;50.838;4.636;2023-12-29T15:01:03;11.00;99.90
32536;DHT22;18974;50.838;4.636;2023-12-29T15:03:29;11.00;99.90
32536;DHT22;18974;50.838;4.636;2023-12-29T15:05:54;11.00;99.90
32536;DHT22;18974;50.838;4.636;2023-12-29T15:08:20;11.00;99.90
32536;DHT22;18974;50.838;4.636;2023-12-29T15:10:46;10.90;99.90
32536;DHT22;18974;50.838;4.636;2023-12-29T15:13:12;10.90;99.90
32536;DHT22;18974;50.838;4.636;2023-12-29T15:15:38;10.90;99.90
32536;DHT22;18974;50.838;4.636;2023-12-29T15:18:04;10.90;99.90
32536;DHT22;18974;50.838;4.636;2023-12-29T15:20:30;10.90;99.90
32536;DHT22;18974;50.838;4.636;2023-12-29T15:22:56;10.90;99.90
32536;DHT22;18974;50.838;4.636;2023-12-29T15:25:22;10.90;99.90
32536;DHT22;18974;50.838;4.636;2023-12-29T15:27:51;10.80;99.90
32536;DHT22;18974;50.838;4.636;2023-12-29T15:30:18;10.80;99.90
32536;DHT22;18974;50.838;4.636;2023-12-29T15:32:43;10.80;99.90
32536;DHT22;18974;50.838;4.636;2023-12-29T15:35:09;10.90;99.90
32536;DHT22;18974;50.838;4.636;2023-12-29T15:37:35;10.90;99.90
32536;DHT22;18974;50.838;4.636;2023-12-29T15:40:01;10.80;99.90
32536;DHT22;18974;50.838;4.636;2023-12-29T15:42:32;10.90;99.90
32536;DHT22;18974;50.838;4.636;2023-12-29T15:44:58;10.90;99.90
32536;DHT22;18974;50.838;4.636;2023-12-29T15:47:24;10.80;99.90
32536;DHT22;18974;50.838;4.636;2023-12-29T15:49:49;10.80;99.90
32536;DHT22;18974;50.838;4.636;2023-12-29T15:52:15;10.80;99.90
32536;DHT22;18974;50.838;4.636;2023-12-29T15:54:41;10.80;99.90
32536;DHT22;18974;50.838;4.636;2023-12-29T15:57:07;10.80;99.90
32536;DHT22;18974;50.838;4.636;2023-12-29T15:59:34;10.90;99.90